EGGDLTFE

Guest
Details From EGGD - Bristol International
To LTFE - MILAS BODRUM
Flight Number -
Tags decoded
Created
Modified
Stats Distance 1,553 nm / 2,875 km
Max Altitude 0 ft / 0 m
Waypoints 3
Social Downloads 0
Likes 0
Share VATSIM

Download

Looking for another format? Having issues loading an existing format? Contact us
Advertisement - Login to hide

Notes

Requested: EGGD WOTAN LTFE

Route

EGGD WOTAN LTFE

ID Type Via Altitude Latitude Longitude Leg Dist Tot Dist Heading (true) Name
O EGGD APT - 0 ft / 0 m 51.38266˚ -2.71892˚ - 0 nm - Bristol International
WOTAN FIX - 0 ft / 0 m 51.62389˚ -2.33500˚ 20 nm 20 nm 45° / 45° -
O LTFE APT - 0 ft / 0 m 37.25112˚ 27.66535˚ 1532 nm 1552 nm 112° / 134° MILAS BODRUM

Altitude Profile

Advertisement - Login to hide

Weather


0- 5 10 15 20 25 30 35+ Temperature / ° C

Clouds and Precipitation
Forecast for 2017-12-17 12:00 UTC. Updated an hour ago

Ground ~20,000 ft ~40,000 ft Winds

EGGD

Details ICAO EGGD (BRS)
Name Bristol International
Region United Kingdom
Timezone Europe/London (UTC+0.0)
Stats Elevation 622 ft / 190 m (AMSL)
Location 51.382658° -2.718918°
Runways 1
Magnetic Variation 1.349° W

METAR

EGGD 171150Z 23011KT 7000 -RA SCT002 BKN006 07/07 Q1023

Decode

TAF

TAF EGGD 171104Z 1712/1812 21008KT 9999 -RA SCT003 BKN015 BECMG 1712/1715 3000 BR BKN003 TEMPO 1714/1720 0300 FG DZ OVC001 BECMG 1720/1723 32010KT 9999 NSW FEW025 BECMG 1800/1803 VRB03KT

Decode

Departure Runways

ID Width Length Bearing (true) Bearing (mag) Surface Threshold Offset Overrun Length
09 148 ft / 45 m 6,655 ft / 2,029 m 86.42° 87.77° Asphalt 0 ft / 0 m 0 ft / 0 m
27 148 ft / 45 m 6,655 ft / 2,029 m 266.44° 267.79° Asphalt 499 ft / 152 m 0 ft / 0 m

LTFE

Details ICAO LTFE (BJV)
Name MILAS BODRUM
Region Turkey
Timezone Europe/Istanbul (UTC+3.0)
Stats Elevation 21 ft / 6 m (AMSL)
Location 37.251115° 27.665350°
Runways 1
Magnetic Variation 4.832° E

METAR

LTFE 171150Z 18020G32KT 9999 -SHRA FEW020CB SCT035 BKN100 19/12 Q1013 NOSIG

Decode

TAF

Not found

Destination Runways

ID Width Length Bearing (true) Bearing (mag) Surface Threshold Offset Overrun Length
11 148 ft / 45 m 9,786 ft / 2,983 m 106.68° 101.85° Concrete 0 ft / 0 m 208 ft / 63 m
29 148 ft / 45 m 9,786 ft / 2,983 m 286.70° 281.87° Concrete 0 ft / 0 m 201 ft / 61 m

Approach Navaids

Runway Type Ident Frequency Range Bearing (true) Bearing (mag) Slope Elevation
11 Localiser IBDR 109.30 MHz 18 nm / 33 km 106.64° 101.81° - 21 ft / 6 m (AMSL)
11 Glidescope IBDR 109.30 MHz 10 nm / 19 km 106.69° 101.86° 3.30° 21 ft / 6 m (AMSL)
29 Localiser IGML 109.10 MHz 18 nm / 33 km 286.68° 281.85° - 21 ft / 6 m (AMSL)
29 Glidescope IGML 109.10 MHz 10 nm / 19 km 286.69° 281.86° 3.90° 21 ft / 6 m (AMSL)

Popular Alternatives